createdAt,value
2019-03-19T00:00:48.555Z,2.45
2019-03-19T00:03:18.661Z,2.49
2019-03-19T00:05:48.712Z,2.49
2019-03-19T00:08:18.860Z,2.48
2019-03-19T00:10:48.886Z,2.46
2019-03-19T00:13:18.856Z,2.45
2019-03-19T00:15:48.927Z,2.45
2019-03-19T00:18:18.940Z,2.46
2019-03-19T00:20:48.993Z,2.44
2019-03-19T00:23:19.055Z,2.41
2019-03-19T00:25:49.123Z,2.38
2019-03-19T00:28:19.124Z,2.37
2019-03-19T00:30:49.338Z,2.35
2019-03-19T00:33:19.470Z,2.36
2019-03-19T00:35:49.580Z,2.34
2019-03-19T00:38:19.690Z,2.32
2019-03-19T00:40:49.794Z,2.29
2019-03-19T00:43:19.832Z,2.33
2019-03-19T00:45:49.922Z,2.33
2019-03-19T00:48:19.965Z,2.34
2019-03-19T00:50:50.099Z,2.33
2019-03-19T00:53:20.118Z,2.34
2019-03-19T00:55:50.330Z,2.34
2019-03-19T00:58:20.374Z,2.35
2019-03-19T01:00:50.410Z,2.32
2019-03-19T01:03:20.498Z,2.32
2019-03-19T01:05:50.522Z,2.30
2019-03-19T01:08:20.572Z,2.26
2019-03-19T01:10:50.641Z,2.25
2019-03-19T01:13:20.730Z,2.22
2019-03-19T01:15:51.021Z,2.21
2019-03-19T01:18:21.066Z,2.19
2019-03-19T01:20:51.104Z,2.15
2019-03-19T01:23:21.184Z,2.14
2019-03-19T01:25:55.545Z,2.11
2019-03-19T01:28:23.031Z,2.04
2019-03-19T01:30:53.165Z,2.02
2019-03-19T01:33:23.267Z,1.99
2019-03-19T01:35:53.357Z,1.99
2019-03-19T01:38:23.440Z,1.96
2019-03-19T01:40:53.470Z,1.94
2019-03-19T01:43:23.546Z,1.91
2019-03-19T01:45:53.572Z,1.89
2019-03-19T01:48:23.651Z,1.85
2019-03-19T01:50:53.726Z,1.78
2019-03-19T01:53:23.832Z,1.77
2019-03-19T01:56:04.445Z,1.75
2019-03-19T01:58:25.632Z,1.75
2019-03-19T02:00:55.678Z,1.76
2019-03-19T02:03:25.722Z,1.77
2019-03-19T02:05:55.790Z,1.75
2019-03-19T02:08:25.839Z,1.74
2019-03-19T02:10:55.893Z,1.73
2019-03-19T02:13:25.897Z,1.69
2019-03-19T02:15:55.912Z,1.59
2019-03-19T02:18:25.951Z,1.64
2019-03-19T02:20:55.963Z,1.57
2019-03-19T02:23:25.994Z,1.54
2019-03-19T02:25:56.077Z,1.51
2019-03-19T02:28:26.173Z,1.42
2019-03-19T02:30:56.271Z,1.41
2019-03-19T02:33:26.342Z,1.41
2019-03-19T02:35:56.405Z,1.44
2019-03-19T02:38:26.450Z,1.43
2019-03-19T02:40:56.492Z,1.44
2019-03-19T02:43:26.618Z,1.40
2019-03-19T02:45:56.700Z,1.40
2019-03-19T02:48:26.782Z,1.39
2019-03-19T02:50:56.872Z,1.37
2019-03-19T02:53:29.503Z,1.35
2019-03-19T02:55:58.735Z,1.35
2019-03-19T02:58:28.791Z,1.34
2019-03-19T03:00:58.845Z,1.32
2019-03-19T03:03:28.917Z,1.31
2019-03-19T03:05:58.963Z,1.30
2019-03-19T03:08:28.965Z,1.30
2019-03-19T03:10:59.058Z,1.28
2019-03-19T03:13:29.189Z,1.27
2019-03-19T03:15:59.250Z,1.28
2019-03-19T03:18:29.294Z,1.27
2019-03-19T03:20:59.344Z,1.29
2019-03-19T03:23:29.489Z,1.28
2019-03-19T03:25:59.509Z,1.22
2019-03-19T03:28:29.602Z,1.20
2019-03-19T03:30:59.677Z,1.21
2019-03-19T03:33:29.869Z,1.22
2019-03-19T03:35:59.913Z,1.22
2019-03-19T03:38:30.135Z,1.22
2019-03-19T03:41:00.207Z,1.22
2019-03-19T03:43:30.410Z,1.21
2019-03-19T03:46:00.463Z,1.21
2019-03-19T03:48:30.646Z,1.20
2019-03-19T03:51:00.703Z,1.18
2019-03-19T03:53:30.784Z,1.18
2019-03-19T03:56:00.812Z,1.19
2019-03-19T03:58:30.967Z,1.21
2019-03-19T04:03:32.267Z,1.26
2019-03-19T04:06:03.420Z,1.24
2019-03-19T04:08:33.727Z,1.24
2019-03-19T04:11:03.928Z,1.24
2019-03-19T04:13:35.661Z,1.24
2019-03-19T04:16:05.826Z,1.21
2019-03-19T04:18:37.291Z,1.19
2019-03-19T04:21:07.469Z,1.16
2019-03-19T04:23:37.760Z,1.13
2019-03-19T04:26:08.962Z,1.10
2019-03-19T04:28:39.994Z,1.07
2019-03-19T04:31:10.142Z,1.04
2019-03-19T04:33:40.682Z,1.02
2019-03-19T04:36:10.925Z,0.98
2019-03-19T04:38:41.184Z,0.94
2019-03-19T04:41:11.427Z,0.92
2019-03-19T04:43:41.647Z,0.89
2019-03-19T04:46:12.937Z,0.87
2019-03-19T04:48:44.861Z,0.89
2019-03-19T04:51:15.231Z,0.88
2019-03-19T04:53:45.424Z,0.88
2019-03-19T04:56:15.620Z,0.87
2019-03-19T04:58:45.812Z,0.86
2019-03-19T05:01:16.010Z,0.80
2019-03-19T05:03:46.232Z,0.78
2019-03-19T05:06:16.482Z,0.76
2019-03-19T05:08:46.802Z,0.73
2019-03-19T05:11:17.232Z,0.72
2019-03-19T05:13:47.529Z,0.70
2019-03-19T05:16:17.731Z,0.67
2019-03-19T05:18:48.027Z,0.65
2019-03-19T05:21:21.545Z,0.63
2019-03-19T05:23:51.676Z,0.62
2019-03-19T05:26:23.400Z,0.61
2019-03-19T05:28:53.630Z,0.62
2019-03-19T05:31:23.782Z,0.63
2019-03-19T05:33:54.168Z,0.59
2019-03-19T05:36:24.328Z,0.59
2019-03-19T05:38:54.481Z,0.61
2019-03-19T05:41:24.639Z,0.62
2019-03-19T05:43:55.621Z,0.62
2019-03-19T05:46:25.840Z,0.61
2019-03-19T05:48:56.136Z,0.59
2019-03-19T05:51:26.342Z,0.58
2019-03-19T05:53:56.565Z,0.58
2019-03-19T05:56:26.729Z,0.59
2019-03-19T05:58:56.933Z,0.60
2019-03-19T06:01:27.065Z,0.59
2019-03-19T06:03:57.429Z,0.58
2019-03-19T06:06:28.308Z,0.57
2019-03-19T06:08:58.644Z,0.56
2019-03-19T06:11:28.837Z,0.57
2019-03-19T06:13:59.049Z,0.58
2019-03-19T06:16:29.321Z,0.54
2019-03-19T06:18:59.609Z,0.58
2019-03-19T06:21:29.835Z,0.60
2019-03-19T06:24:00.047Z,0.62
2019-03-19T06:26:31.265Z,0.62
2019-03-19T06:29:01.447Z,0.65
2019-03-19T06:31:32.421Z,0.66
2019-03-19T06:34:02.574Z,0.67
2019-03-19T06:36:33.072Z,0.69
2019-03-19T06:39:05.755Z,0.72
2019-03-19T06:41:39.907Z,0.71
2019-03-19T06:44:10.127Z,0.75
2019-03-19T06:46:40.380Z,0.77
2019-03-19T06:49:10.537Z,0.80
2019-03-19T06:51:40.850Z,0.84
2019-03-19T06:54:12.611Z,0.90
2019-03-19T06:56:42.895Z,0.96
2019-03-19T06:59:13.110Z,1.01
2019-03-19T07:01:43.284Z,1.05
2019-03-19T07:04:13.870Z,1.07
2019-03-19T07:06:44.085Z,1.10
2019-03-19T07:09:14.491Z,1.09
2019-03-19T07:11:44.710Z,1.11
2019-03-19T07:14:16.676Z,1.12
2019-03-19T07:16:46.874Z,1.16
2019-03-19T07:19:17.119Z,1.15
2019-03-19T07:21:47.386Z,1.24
2019-03-19T07:24:17.590Z,1.37
2019-03-19T07:26:49.327Z,1.53
2019-03-19T07:29:19.516Z,1.66
2019-03-19T07:31:49.895Z,1.74
2019-03-19T07:34:20.086Z,1.77
2019-03-19T07:36:50.370Z,1.78
2019-03-19T07:39:21.410Z,1.82
2019-03-19T07:41:51.740Z,1.88
2019-03-19T07:44:23.092Z,1.92
2019-03-19T07:46:53.799Z,1.93
2019-03-19T07:49:24.912Z,1.96
2019-03-19T07:51:55.157Z,2.03
2019-03-19T07:54:25.478Z,2.07
2019-03-19T07:56:55.598Z,2.14
2019-03-19T07:59:26.598Z,2.29
2019-03-19T08:01:57.579Z,2.46
2019-03-19T08:04:27.860Z,2.61
2019-03-19T08:06:59.688Z,2.77
2019-03-19T08:09:30.310Z,2.88
2019-03-19T08:12:00.567Z,2.99
2019-03-19T08:14:31.514Z,3.15
2019-03-19T08:17:02.758Z,3.32
2019-03-19T08:19:33.061Z,3.46
2019-03-19T08:22:03.384Z,3.61
2019-03-19T08:24:33.638Z,3.80
2019-03-19T08:27:05.512Z,4.00
2019-03-19T08:29:36.603Z,4.14
2019-03-19T08:32:07.676Z,4.21
2019-03-19T08:34:38.032Z,4.39
2019-03-19T08:37:08.357Z,4.52
2019-03-19T08:39:38.631Z,4.63
2019-03-19T08:42:08.942Z,4.66
2019-03-19T08:44:39.932Z,4.66
2019-03-19T08:47:10.064Z,4.69
2019-03-19T08:49:40.222Z,4.69
2019-03-19T08:52:12.237Z,4.76
2019-03-19T08:54:42.411Z,4.90
2019-03-19T08:57:12.755Z,4.98
2019-03-19T08:59:43.105Z,5.03
2019-03-19T09:02:13.829Z,5.11
2019-03-19T09:04:45.625Z,5.20
2019-03-19T09:07:15.948Z,5.27
2019-03-19T09:09:46.096Z,5.37
2019-03-19T09:12:17.162Z,5.50
2019-03-19T09:14:47.313Z,5.65
2019-03-19T09:17:17.673Z,5.93
2019-03-19T09:19:48.639Z,6.15
2019-03-19T09:22:19.942Z,6.43
2019-03-19T09:24:50.247Z,6.55
2019-03-19T09:27:20.623Z,6.52
2019-03-19T09:29:50.778Z,6.64
2019-03-19T09:32:21.949Z,6.72
2019-03-19T09:34:52.167Z,6.74
2019-03-19T09:37:22.331Z,6.73
2019-03-19T09:39:52.597Z,6.73
2019-03-19T09:42:22.762Z,6.77
2019-03-19T09:44:58.338Z,6.74
2019-03-19T09:47:26.465Z,6.76
2019-03-19T09:49:56.711Z,6.82
2019-03-19T09:52:26.927Z,6.87
2019-03-19T09:54:57.320Z,6.83
2019-03-19T09:57:27.481Z,6.84
2019-03-19T09:59:57.762Z,6.81
2019-03-19T10:02:27.955Z,6.83
2019-03-19T10:04:58.180Z,6.89
2019-03-19T10:07:28.468Z,6.95
2019-03-19T10:09:59.531Z,6.92
2019-03-19T10:12:29.751Z,6.93
2019-03-19T10:15:01.450Z,7.09
2019-03-19T10:17:31.701Z,7.30
2019-03-19T10:20:02.100Z,7.48
2019-03-19T10:22:33.654Z,7.62
2019-03-19T10:25:03.974Z,7.81
2019-03-19T10:27:34.293Z,7.97
2019-03-19T10:30:05.358Z,8.13
2019-03-19T10:32:36.704Z,8.26
2019-03-19T10:35:08.546Z,8.35
2019-03-19T10:37:40.308Z,8.30
2019-03-19T10:40:11.035Z,8.18
2019-03-19T10:42:41.339Z,8.19
2019-03-19T10:45:12.132Z,8.19
2019-03-19T10:47:42.364Z,8.16
2019-03-19T10:50:16.654Z,8.10
2019-03-19T10:52:46.888Z,8.01
2019-03-19T10:55:18.056Z,8.00
2019-03-19T10:57:48.276Z,8.00
2019-03-19T11:00:22.105Z,7.97
2019-03-19T11:02:53.746Z,7.91
2019-03-19T11:05:24.087Z,7.87
2019-03-19T11:07:54.617Z,7.72
2019-03-19T11:10:24.837Z,7.70
2019-03-19T11:12:55.029Z,7.68
2019-03-19T11:15:25.313Z,7.59
2019-03-19T11:17:55.508Z,7.53
2019-03-19T11:20:25.821Z,7.46
2019-03-19T11:22:56.187Z,7.43
2019-03-19T11:25:26.451Z,7.34
2019-03-19T11:27:58.309Z,7.25
2019-03-19T11:30:28.683Z,7.18
2019-03-19T11:32:58.854Z,7.16
2019-03-19T11:35:29.284Z,7.21
2019-03-19T11:37:59.496Z,7.29
2019-03-19T11:40:29.838Z,7.40
2019-03-19T11:43:00.841Z,7.64
2019-03-19T11:45:31.112Z,7.96
2019-03-19T11:48:02.100Z,8.29
2019-03-19T11:50:33.456Z,8.55
2019-03-19T11:53:04.412Z,8.57
2019-03-19T11:55:34.632Z,8.61
2019-03-19T11:58:04.945Z,8.64
2019-03-19T12:00:37.853Z,8.54
2019-03-19T12:03:15.275Z,8.29
2019-03-19T12:05:40.214Z,8.14
2019-03-19T12:08:10.413Z,8.08
2019-03-19T12:10:40.741Z,8.17
2019-03-19T12:13:10.993Z,8.30
2019-03-19T12:15:41.919Z,8.35
2019-03-19T12:18:12.950Z,8.52
2019-03-19T12:20:43.967Z,8.62
2019-03-19T12:23:14.131Z,8.69
2019-03-19T12:25:44.328Z,8.80
2019-03-19T12:28:14.707Z,8.99
2019-03-19T12:30:45.069Z,9.10
2019-03-19T12:33:15.331Z,8.94
2019-03-19T12:35:45.523Z,8.61
2019-03-19T12:38:16.505Z,8.44
2019-03-19T12:40:47.617Z,8.35
2019-03-19T12:43:18.600Z,8.32
2019-03-19T12:45:49.894Z,8.23
2019-03-19T12:48:20.073Z,8.23
2019-03-19T12:50:50.240Z,8.20
2019-03-19T12:53:21.257Z,8.20
2019-03-19T12:55:51.523Z,8.28
2019-03-19T12:58:21.685Z,8.37
2019-03-19T13:00:51.935Z,8.40
2019-03-19T13:03:22.094Z,8.39
2019-03-19T13:05:52.314Z,8.37
2019-03-19T13:08:22.633Z,8.37
2019-03-19T13:10:52.969Z,8.34
2019-03-19T13:13:23.352Z,8.24
2019-03-19T13:15:53.632Z,8.07
2019-03-19T13:18:23.804Z,7.93
2019-03-19T13:20:54.020Z,7.80
2019-03-19T13:23:26.181Z,7.78
2019-03-19T13:25:56.863Z,7.68
2019-03-19T13:28:27.239Z,7.63
2019-03-19T13:30:57.483Z,7.54
2019-03-19T13:33:27.648Z,7.58
2019-03-19T13:35:57.818Z,7.62
2019-03-19T13:38:28.813Z,7.65
2019-03-19T13:40:59.033Z,7.78
2019-03-19T13:43:29.297Z,7.90
2019-03-19T13:45:59.481Z,8.01
2019-03-19T13:48:29.694Z,8.04
2019-03-19T13:50:59.850Z,8.11
2019-03-19T13:53:30.063Z,8.16
2019-03-19T13:56:00.974Z,8.19
2019-03-19T13:58:31.278Z,8.21
2019-03-19T14:01:01.668Z,8.20
2019-03-19T14:03:31.823Z,8.33
2019-03-19T14:06:02.739Z,8.39
2019-03-19T14:08:33.000Z,8.36
2019-03-19T14:11:03.176Z,8.36
2019-03-19T14:13:34.278Z,8.50
2019-03-19T14:16:04.587Z,8.61
2019-03-19T14:18:34.864Z,8.64
2019-03-19T14:21:07.952Z,8.75
2019-03-19T14:23:38.976Z,8.76
2019-03-19T14:26:10.108Z,8.75
2019-03-19T14:28:40.395Z,8.75
2019-03-19T14:31:12.929Z,8.71
2019-03-19T14:33:44.030Z,8.74
2019-03-19T14:36:15.306Z,8.75
2019-03-19T14:38:47.234Z,8.61
2019-03-19T14:41:18.036Z,8.33
2019-03-19T14:43:49.148Z,8.28
2019-03-19T14:46:20.214Z,8.25
2019-03-19T14:48:50.616Z,8.20
2019-03-19T14:51:21.835Z,8.19
2019-03-19T14:53:52.119Z,8.13
2019-03-19T14:56:24.894Z,7.99
2019-03-19T14:58:55.180Z,8.05
2019-03-19T15:01:25.396Z,8.16
2019-03-19T15:03:56.161Z,8.32
2019-03-19T15:06:27.227Z,8.46
2019-03-19T15:08:57.535Z,8.61
2019-03-19T15:11:28.044Z,8.68
2019-03-19T15:13:58.431Z,8.94
2019-03-19T15:16:28.688Z,9.51
2019-03-19T15:18:59.168Z,10.11
2019-03-19T15:21:29.479Z,10.16
2019-03-19T15:23:59.754Z,10.35
2019-03-19T15:26:30.874Z,10.26
2019-03-19T15:29:01.151Z,9.90
2019-03-19T15:31:33.003Z,9.71
2019-03-19T15:34:03.284Z,9.52
2019-03-19T15:36:33.589Z,9.47
2019-03-19T15:39:07.696Z,9.48
2019-03-19T15:41:37.847Z,9.62
2019-03-19T15:44:08.063Z,9.72
2019-03-19T15:46:39.549Z,9.76
2019-03-19T15:49:10.763Z,9.52
2019-03-19T15:51:41.012Z,9.45
2019-03-19T15:54:11.308Z,9.32
2019-03-19T15:56:41.508Z,9.18
2019-03-19T15:59:11.783Z,9.13
2019-03-19T16:01:41.980Z,9.08
2019-03-19T16:04:12.171Z,8.93
2019-03-19T16:06:43.159Z,8.72
2019-03-19T16:09:14.276Z,8.54
2019-03-19T16:11:44.595Z,8.41
2019-03-19T16:14:15.152Z,8.33
2019-03-19T16:16:45.454Z,8.21
2019-03-19T16:19:16.477Z,8.10
2019-03-19T16:21:47.879Z,8.01
2019-03-19T16:24:18.113Z,7.94
2019-03-19T16:26:48.359Z,7.84
2019-03-19T16:29:18.611Z,7.75
2019-03-19T16:31:51.210Z,7.70
2019-03-19T16:34:21.571Z,7.62
2019-03-19T16:36:52.097Z,7.53
2019-03-19T16:39:23.089Z,7.46
2019-03-19T16:41:53.337Z,7.36
2019-03-19T16:44:24.455Z,7.30
2019-03-19T16:46:54.809Z,7.25
2019-03-19T16:49:25.127Z,7.19
2019-03-19T16:51:55.531Z,7.14
2019-03-19T16:54:25.795Z,7.08
2019-03-19T16:56:56.145Z,7.02
2019-03-19T16:59:26.468Z,6.99
2019-03-19T17:02:01.630Z,6.95
2019-03-19T17:04:30.350Z,6.88
2019-03-19T17:07:01.414Z,6.83
2019-03-19T17:09:31.690Z,6.76
2019-03-19T17:12:02.058Z,6.65
2019-03-19T17:14:32.342Z,6.63
2019-03-19T17:17:02.673Z,6.54
2019-03-19T17:19:32.958Z,6.47
2019-03-19T17:22:03.225Z,6.39
2019-03-19T17:24:33.666Z,6.33
2019-03-19T17:27:05.100Z,6.27
2019-03-19T17:29:35.310Z,6.20
2019-03-19T17:32:12.937Z,6.12
2019-03-19T17:34:40.147Z,6.05
2019-03-19T17:37:11.970Z,5.98
2019-03-19T17:39:42.184Z,5.92
2019-03-19T17:42:12.392Z,5.90
2019-03-19T17:44:44.339Z,5.86
2019-03-19T17:47:14.620Z,5.82
2019-03-19T17:49:44.858Z,5.78
2019-03-19T17:52:15.077Z,5.72
2019-03-19T17:54:45.513Z,5.64
2019-03-19T17:57:15.893Z,5.55
2019-03-19T17:59:46.161Z,5.46
2019-03-19T18:02:23.871Z,5.40
2019-03-19T18:04:48.853Z,5.34
2019-03-19T18:07:19.073Z,5.26
2019-03-19T18:09:49.482Z,5.21
2019-03-19T18:12:19.699Z,5.17
2019-03-19T18:14:50.076Z,5.10
2019-03-19T18:17:20.377Z,5.03
2019-03-19T18:19:52.417Z,4.99
2019-03-19T18:22:22.620Z,4.90
2019-03-19T18:24:52.938Z,4.79
2019-03-19T18:27:23.197Z,4.66
2019-03-19T18:29:55.425Z,4.57
2019-03-19T18:32:34.704Z,4.48
2019-03-19T18:34:59.025Z,4.42
2019-03-19T18:37:29.359Z,4.38
2019-03-19T18:40:00.547Z,4.33
2019-03-19T18:42:30.878Z,4.30
2019-03-19T18:45:01.471Z,4.27
2019-03-19T18:47:31.923Z,4.21
2019-03-19T18:50:02.954Z,4.14
2019-03-19T18:52:34.270Z,4.08
2019-03-19T18:55:04.665Z,4.00
2019-03-19T18:57:35.000Z,3.96
2019-03-19T19:00:07.653Z,3.90
2019-03-19T19:02:48.782Z,3.86
2019-03-19T19:05:10.652Z,3.82
2019-03-19T19:07:42.629Z,3.78
2019-03-19T19:10:13.918Z,3.71
2019-03-19T19:12:44.094Z,3.65
2019-03-19T19:15:15.078Z,3.62
2019-03-19T19:17:46.108Z,3.57
2019-03-19T19:20:16.532Z,3.54
2019-03-19T19:22:49.867Z,3.46
2019-03-19T19:25:20.971Z,3.42
2019-03-19T19:27:51.387Z,3.35
2019-03-19T19:30:22.782Z,3.27
2019-03-19T19:33:01.600Z,3.23
2019-03-19T19:35:26.819Z,3.20
2019-03-19T19:37:58.679Z,3.12
2019-03-19T19:40:29.654Z,2.98
2019-03-19T19:43:00.179Z,2.91
2019-03-19T19:45:30.578Z,2.84
2019-03-19T19:48:00.931Z,2.80
2019-03-19T19:50:31.974Z,2.75
2019-03-19T19:53:03.102Z,2.73
2019-03-19T19:55:33.445Z,2.69
2019-03-19T19:58:04.787Z,2.67
2019-03-19T20:00:36.069Z,2.65
2019-03-19T20:03:12.365Z,2.64
2019-03-19T20:05:38.610Z,2.60
2019-03-19T20:08:09.292Z,2.54
2019-03-19T20:10:40.344Z,2.51
2019-03-19T20:13:12.047Z,2.44
2019-03-19T20:15:43.323Z,2.41
2019-03-19T20:18:15.344Z,2.35
2019-03-19T20:20:46.577Z,2.34
2019-03-19T20:23:17.004Z,2.33
2019-03-19T20:25:50.109Z,2.29
2019-03-19T20:28:20.352Z,2.29
2019-03-19T20:30:50.881Z,2.24
2019-03-19T20:33:24.987Z,2.21
2019-03-19T20:35:55.821Z,2.18
2019-03-19T20:38:26.463Z,2.12
2019-03-19T20:40:57.257Z,1.96
2019-03-19T20:43:28.979Z,1.90
2019-03-19T20:45:59.472Z,1.86
2019-03-19T20:48:29.947Z,1.83
2019-03-19T20:51:00.491Z,1.84
2019-03-19T20:53:31.090Z,1.83
2019-03-19T20:56:02.629Z,1.83
2019-03-19T20:58:43.063Z,1.80
2019-03-19T21:01:08.129Z,1.79
2019-03-19T21:03:42.394Z,1.72
2019-03-19T21:06:12.670Z,1.70
2019-03-19T21:08:42.886Z,1.67
2019-03-19T21:11:13.012Z,1.65
2019-03-19T21:13:44.254Z,1.63
2019-03-19T21:16:14.515Z,1.61
2019-03-19T21:18:46.405Z,1.58
2019-03-19T21:21:16.745Z,1.56
2019-03-19T21:23:47.014Z,1.51
2019-03-19T21:26:17.368Z,1.46
2019-03-19T21:28:47.556Z,1.40
2019-03-19T21:31:18.294Z,1.36
2019-03-19T21:33:51.426Z,1.32
2019-03-19T21:36:20.562Z,1.29
2019-03-19T21:38:50.673Z,1.29
2019-03-19T21:41:20.896Z,1.30
2019-03-19T21:43:51.160Z,1.30
2019-03-19T21:46:21.314Z,1.26
2019-03-19T21:48:51.609Z,1.24
2019-03-19T21:51:21.813Z,1.23
2019-03-19T21:53:51.964Z,1.22
2019-03-19T21:56:22.211Z,1.21
2019-03-19T21:58:53.320Z,1.19
2019-03-19T22:01:23.591Z,1.19
2019-03-19T22:04:02.661Z,1.18
2019-03-19T22:06:25.853Z,1.18
2019-03-19T22:08:55.986Z,1.18
2019-03-19T22:11:26.425Z,1.19
2019-03-19T22:13:56.765Z,1.18
2019-03-19T22:16:27.855Z,1.18
2019-03-19T22:18:58.295Z,1.15
2019-03-19T22:21:28.562Z,1.14
2019-03-19T22:23:59.497Z,1.14
2019-03-19T22:26:29.661Z,1.09
2019-03-19T22:28:59.923Z,1.03
2019-03-19T22:31:30.136Z,1.01
2019-03-19T22:34:00.425Z,1.00
2019-03-19T22:36:30.696Z,0.99
2019-03-19T22:39:00.904Z,0.92
2019-03-19T22:41:31.126Z,0.92
2019-03-19T22:44:02.070Z,0.94
2019-03-19T22:46:32.301Z,0.93
2019-03-19T22:49:03.228Z,0.90
2019-03-19T22:51:33.490Z,0.88
2019-03-19T22:54:04.567Z,0.87
2019-03-19T22:56:35.819Z,0.86
2019-03-19T22:59:06.088Z,0.86
2019-03-19T23:01:36.308Z,0.86
2019-03-19T23:04:06.642Z,0.87
2019-03-19T23:06:36.910Z,0.90
2019-03-19T23:09:08.043Z,0.91
2019-03-19T23:11:39.830Z,0.91
2019-03-19T23:14:09.948Z,0.90
2019-03-19T23:16:40.227Z,0.91
2019-03-19T23:19:10.497Z,0.88
2019-03-19T23:21:40.648Z,0.88
2019-03-19T23:24:12.392Z,0.87
2019-03-19T23:26:43.490Z,0.85
2019-03-19T23:29:15.413Z,0.81
2019-03-19T23:31:45.692Z,0.73
2019-03-19T23:34:16.018Z,0.72
2019-03-19T23:36:46.442Z,0.71
2019-03-19T23:39:16.675Z,0.71
2019-03-19T23:41:47.820Z,0.70
2019-03-19T23:44:18.962Z,0.69
2019-03-19T23:46:49.151Z,0.68
2019-03-19T23:49:19.272Z,0.64
2019-03-19T23:51:49.654Z,0.65
2019-03-19T23:54:19.829Z,0.65
2019-03-19T23:56:50.976Z,0.65
2019-03-19T23:59:23.332Z,0.63
